SAS42F ENZV-ENVA
Flight info
| Callsign | SAS42F |
|---|---|
| Flight time | 1h 0m |
| Altitude | 41000 |
| Route | ODINU DCT KEKOD DCT NELSU |
| Aircraft | B736/M-SDE2E3FGHIRWXY/LB1 |
Departure
| Time | 2026-04-28 15:54 |
|---|---|
| Airport | Stavanger Airport, Sola (ENZV) |
Arrival
| Time | 2026-04-28 16:55 |
|---|---|
| Airport | Trondheim Airport, Værnes (ENVA) |
| Time | Latitude | Longitude | Altitude | Speed | Heading |
|---|---|---|---|---|---|
| 2026-04-28 15:12 | 58.88087 | 5.62587 | 23 ft | 0 kts | 57° |
| 2026-04-28 15:44 | 58.88085 | 5.62583 | 23 ft | 2 kts | 57° |
| 2026-04-28 15:44 | 58.88074 | 5.62540 | 22 ft | 4 kts | 79° |
| 2026-04-28 15:45 | 58.88075 | 5.62492 | 23 ft | 4 kts | 119° |
| 2026-04-28 15:45 | 58.88081 | 5.62473 | 19 ft | 2 kts | 136° |
| 2026-04-28 15:45 | 58.88064 | 5.62509 | 25 ft | 2 kts | 133° |
| 2026-04-28 15:45 | 58.88063 | 5.62511 | 25 ft | 1 kts | 133° |
| 2026-04-28 15:49 | 58.88052 | 5.62534 | 25 ft | 7 kts | 133° |
| 2026-04-28 15:49 | 58.88015 | 5.62654 | 24 ft | 12 kts | 103° |
| 2026-04-28 15:50 | 58.87990 | 5.62816 | 27 ft | 13 kts | 104° |
| 2026-04-28 15:50 | 58.87993 | 5.62988 | 27 ft | 13 kts | 87° |
| 2026-04-28 15:50 | 58.87971 | 5.63157 | 27 ft | 11 kts | 107° |
| 2026-04-28 15:50 | 58.87951 | 5.63290 | 28 ft | 10 kts | 106° |
| 2026-04-28 15:51 | 58.87898 | 5.63332 | 30 ft | 11 kts | 201° |
| 2026-04-28 15:51 | 58.87819 | 5.63289 | 30 ft | 14 kts | 178° |
| 2026-04-28 15:51 | 58.87699 | 5.63294 | 30 ft | 20 kts | 179° |
| 2026-04-28 15:51 | 58.87554 | 5.63297 | 30 ft | 22 kts | 179° |
| 2026-04-28 15:52 | 58.87395 | 5.63300 | 30 ft | 23 kts | 178° |
| 2026-04-28 15:52 | 58.87228 | 5.63307 | 30 ft | 25 kts | 180° |
| 2026-04-28 15:52 | 58.87093 | 5.63311 | 31 ft | 17 kts | 179° |
| 2026-04-28 15:52 | 58.87000 | 5.63399 | 31 ft | 15 kts | 114° |
| 2026-04-28 15:53 | 58.87017 | 5.63585 | 33 ft | 14 kts | 63° |
| 2026-04-28 15:53 | 58.87059 | 5.63754 | 33 ft | 14 kts | 71° |
| 2026-04-28 15:53 | 58.87127 | 5.63800 | 34 ft | 11 kts | 358° |
| 2026-04-28 15:53 | 58.87259 | 5.63791 | 33 ft | 43 kts | 358° |
| 2026-04-28 15:54 | 58.87801 | 5.63781 | 32 ft | 109 kts | 359° |
| 2026-04-28 15:54 | 58.88728 | 5.63767 | 111 ft | 150 kts | 357° |
| 2026-04-28 15:54 | 58.89770 | 5.63780 | 774 ft | 149 kts | 356° |
| 2026-04-28 15:54 | 58.90805 | 5.63736 | 1477 ft | 146 kts | 355° |
| 2026-04-28 15:55 | 58.91819 | 5.63635 | 2193 ft | 151 kts | 355° |
| 2026-04-28 15:55 | 58.92970 | 5.63571 | 2601 ft | 180 kts | 358° |
| 2026-04-28 15:55 | 58.94342 | 5.63552 | 2871 ft | 212 kts | 359° |
| 2026-04-28 15:55 | 58.95881 | 5.63524 | 3447 ft | 227 kts | 359° |
| 2026-04-28 15:56 | 58.97470 | 5.63482 | 4375 ft | 228 kts | 359° |
| 2026-04-28 15:56 | 58.99064 | 5.63437 | 5297 ft | 231 kts | 359° |
| 2026-04-28 15:56 | 59.00684 | 5.63513 | 6165 ft | 235 kts | 11° |
| 2026-04-28 15:56 | 59.02226 | 5.64616 | 7096 ft | 238 kts | 22° |
| 2026-04-28 15:57 | 59.03765 | 5.65856 | 8016 ft | 240 kts | 18° |
| 2026-04-28 15:57 | 59.05370 | 5.66950 | 8664 ft | 257 kts | 17° |
| 2026-04-28 15:57 | 59.07102 | 5.68092 | 9485 ft | 267 kts | 17° |
| 2026-04-28 15:57 | 59.08876 | 5.69260 | 10496 ft | 271 kts | 17° |
| 2026-04-28 15:58 | 59.10662 | 5.70444 | 11510 ft | 271 kts | 17° |
| 2026-04-28 15:58 | 59.12442 | 5.71632 | 12611 ft | 270 kts | 17° |
| 2026-04-28 15:58 | 59.14220 | 5.72825 | 13714 ft | 270 kts | 18° |
| 2026-04-28 15:58 | 59.16005 | 5.74027 | 14734 ft | 272 kts | 18° |
| 2026-04-28 15:59 | 59.17797 | 5.75238 | 15695 ft | 274 kts | 18° |
| 2026-04-28 15:59 | 59.19019 | 5.76065 | 16339 ft | 275 kts | 18° |
| 2026-04-28 15:59 | 59.21426 | 5.77699 | 17662 ft | 278 kts | 18° |
| 2026-04-28 15:59 | 59.23260 | 5.78948 | 18614 ft | 281 kts | 18° |
| 2026-04-28 16:00 | 59.25122 | 5.80216 | 19435 ft | 285 kts | 18° |
| 2026-04-28 16:00 | 59.27012 | 5.81506 | 20257 ft | 289 kts | 18° |
| 2026-04-28 16:00 | 59.28926 | 5.82814 | 21078 ft | 293 kts | 18° |
| 2026-04-28 16:00 | 59.30868 | 5.84145 | 21889 ft | 298 kts | 18° |
| 2026-04-28 16:01 | 59.32840 | 5.85496 | 22703 ft | 302 kts | 18° |
| 2026-04-28 16:01 | 59.34841 | 5.86870 | 23519 ft | 307 kts | 18° |
| 2026-04-28 16:01 | 59.36875 | 5.88268 | 24278 ft | 312 kts | 18° |
| 2026-04-28 16:01 | 59.38938 | 5.89685 | 24987 ft | 315 kts | 18° |
| 2026-04-28 16:02 | 59.41006 | 5.91112 | 25822 ft | 315 kts | 18° |
| 2026-04-28 16:02 | 59.43070 | 5.92539 | 26672 ft | 315 kts | 18° |
| 2026-04-28 16:02 | 59.45206 | 5.94015 | 26851 ft | 335 kts | 18° |
| 2026-04-28 16:02 | 59.47438 | 5.95557 | 26984 ft | 354 kts | 18° |
| 2026-04-28 16:03 | 59.49814 | 5.97202 | 27093 ft | 371 kts | 18° |
| 2026-04-28 16:03 | 59.52297 | 5.98924 | 27210 ft | 385 kts | 18° |
| 2026-04-28 16:03 | 59.54860 | 6.00706 | 27565 ft | 393 kts | 18° |
| 2026-04-28 16:03 | 59.57445 | 6.02508 | 28163 ft | 394 kts | 18° |
| 2026-04-28 16:04 | 59.60033 | 6.04317 | 28808 ft | 395 kts | 18° |
| 2026-04-28 16:04 | 59.62613 | 6.06118 | 29460 ft | 394 kts | 18° |
| 2026-04-28 16:04 | 59.65212 | 6.07935 | 29948 ft | 397 kts | 18° |
| 2026-04-28 16:04 | 59.66943 | 6.09149 | 30237 ft | 400 kts | 18° |
| 2026-04-28 16:05 | 59.70470 | 6.11627 | 30827 ft | 404 kts | 18° |
| 2026-04-28 16:05 | 59.73120 | 6.13494 | 31271 ft | 404 kts | 18° |
| 2026-04-28 16:05 | 59.75757 | 6.15355 | 31872 ft | 400 kts | 18° |
| 2026-04-28 16:05 | 59.78361 | 6.17196 | 32505 ft | 396 kts | 18° |
| 2026-04-28 16:06 | 59.80942 | 6.19022 | 33047 ft | 394 kts | 18° |
| 2026-04-28 16:06 | 59.83528 | 6.20854 | 33529 ft | 393 kts | 18° |
| 2026-04-28 16:06 | 59.86099 | 6.22677 | 34012 ft | 391 kts | 18° |
| 2026-04-28 16:06 | 59.88650 | 6.24491 | 34568 ft | 388 kts | 18° |
| 2026-04-28 16:07 | 59.91184 | 6.26295 | 34970 ft | 386 kts | 18° |
| 2026-04-28 16:07 | 59.93719 | 6.28101 | 35250 ft | 388 kts | 18° |
| 2026-04-28 16:07 | 59.98820 | 6.31743 | 35836 ft | 389 kts | 18° |
| 2026-04-28 16:08 | 60.01366 | 6.33566 | 36178 ft | 389 kts | 18° |
| 2026-04-28 16:08 | 60.03912 | 6.35394 | 36494 ft | 389 kts | 18° |
| 2026-04-28 16:08 | 60.06458 | 6.37223 | 36823 ft | 389 kts | 18° |
| 2026-04-28 16:09 | 60.11513 | 6.40865 | 37434 ft | 389 kts | 18° |
| 2026-04-28 16:09 | 60.14058 | 6.42703 | 37746 ft | 389 kts | 18° |
| 2026-04-28 16:09 | 60.16600 | 6.44542 | 38055 ft | 389 kts | 18° |
| 2026-04-28 16:10 | 60.21694 | 6.48236 | 38550 ft | 390 kts | 18° |
| 2026-04-28 16:10 | 60.24243 | 6.50089 | 38847 ft | 389 kts | 18° |
| 2026-04-28 16:10 | 60.29341 | 6.53804 | 39317 ft | 390 kts | 18° |
| 2026-04-28 16:11 | 60.34463 | 6.57549 | 39674 ft | 392 kts | 18° |
| 2026-04-28 16:11 | 60.39609 | 6.61324 | 39971 ft | 395 kts | 18° |
| 2026-04-28 16:12 | 60.44783 | 6.65132 | 40333 ft | 397 kts | 18° |
| 2026-04-28 16:12 | 60.46501 | 6.66400 | 40433 ft | 396 kts | 18° |
| 2026-04-28 16:13 | 60.51670 | 6.70224 | 40931 ft | 395 kts | 18° |
| 2026-04-28 16:13 | 60.54244 | 6.72133 | 41172 ft | 394 kts | 18° |
| 2026-04-28 16:13 | 60.59398 | 6.75963 | 41401 ft | 398 kts | 18° |
| 2026-04-28 16:14 | 60.64653 | 6.79879 | 41444 ft | 406 kts | 18° |
| 2026-04-28 16:15 | 60.75291 | 6.87858 | 41424 ft | 406 kts | 18° |
| 2026-04-28 16:15 | 60.80589 | 6.91852 | 41419 ft | 405 kts | 18° |
| 2026-04-28 16:16 | 60.88512 | 6.97851 | 41418 ft | 404 kts | 18° |
| 2026-04-28 16:17 | 60.96418 | 7.03869 | 41432 ft | 404 kts | 18° |
| 2026-04-28 16:17 | 61.01664 | 7.07879 | 41417 ft | 405 kts | 18° |
| 2026-04-28 16:18 | 61.06945 | 7.11931 | 41430 ft | 404 kts | 18° |
| 2026-04-28 16:18 | 61.12222 | 7.15994 | 41432 ft | 405 kts | 18° |
| 2026-04-28 16:19 | 61.17501 | 7.20073 | 41426 ft | 405 kts | 18° |
| 2026-04-28 16:19 | 61.22779 | 7.24167 | 41421 ft | 404 kts | 18° |
| 2026-04-28 16:20 | 61.28043 | 7.28263 | 41434 ft | 404 kts | 18° |
| 2026-04-28 16:20 | 61.33314 | 7.32380 | 41424 ft | 405 kts | 18° |
| 2026-04-28 16:21 | 61.38579 | 7.36507 | 41433 ft | 404 kts | 18° |
| 2026-04-28 16:21 | 61.43845 | 7.40651 | 41437 ft | 403 kts | 18° |
| 2026-04-28 16:22 | 61.49062 | 7.44770 | 41454 ft | 404 kts | 18° |
| 2026-04-28 16:22 | 61.54331 | 7.48946 | 41448 ft | 405 kts | 18° |
| 2026-04-28 16:23 | 61.59604 | 7.53139 | 41444 ft | 406 kts | 18° |
| 2026-04-28 16:23 | 61.64886 | 7.57418 | 41448 ft | 408 kts | 21° |
| 2026-04-28 16:24 | 61.69822 | 7.63442 | 41449 ft | 412 kts | 28° |
| 2026-04-28 16:24 | 61.74653 | 7.70001 | 41459 ft | 413 kts | 28° |
| 2026-04-28 16:25 | 61.79490 | 7.76564 | 41457 ft | 413 kts | 28° |
| 2026-04-28 16:25 | 61.84339 | 7.83126 | 41451 ft | 414 kts | 28° |
| 2026-04-28 16:26 | 61.89186 | 7.89689 | 41503 ft | 414 kts | 28° |
| 2026-04-28 16:26 | 61.94052 | 7.96298 | 41465 ft | 416 kts | 29° |
| 2026-04-28 16:27 | 61.98915 | 8.02930 | 41456 ft | 414 kts | 29° |
| 2026-04-28 16:28 | 62.06139 | 8.12831 | 41443 ft | 412 kts | 29° |
| 2026-04-28 16:28 | 62.10960 | 8.19469 | 41454 ft | 411 kts | 29° |
| 2026-04-28 16:29 | 62.18174 | 8.29448 | 41452 ft | 411 kts | 29° |
| 2026-04-28 16:30 | 62.25366 | 8.39456 | 41434 ft | 411 kts | 29° |
| 2026-04-28 16:30 | 62.30160 | 8.46159 | 41452 ft | 411 kts | 29° |
| 2026-04-28 16:31 | 62.34914 | 8.52831 | 41450 ft | 411 kts | 29° |
| 2026-04-28 16:31 | 62.39692 | 8.59564 | 41447 ft | 411 kts | 29° |
| 2026-04-28 16:32 | 62.44474 | 8.66327 | 41440 ft | 410 kts | 29° |
| 2026-04-28 16:32 | 62.51637 | 8.76508 | 41445 ft | 411 kts | 29° |
| 2026-04-28 16:33 | 62.55601 | 8.82169 | 41457 ft | 411 kts | 29° |
| 2026-04-28 16:33 | 62.61178 | 8.90163 | 41479 ft | 411 kts | 29° |
| 2026-04-28 16:34 | 62.63580 | 8.93615 | 41115 ft | 418 kts | 29° |
| 2026-04-28 16:34 | 62.66000 | 8.97101 | 40678 ft | 413 kts | 29° |
| 2026-04-28 16:34 | 62.68400 | 9.00569 | 39934 ft | 413 kts | 29° |
| 2026-04-28 16:34 | 62.70770 | 9.04003 | 39405 ft | 407 kts | 29° |
| 2026-04-28 16:35 | 62.73135 | 9.07432 | 38424 ft | 408 kts | 29° |
| 2026-04-28 16:35 | 62.75480 | 9.10840 | 37813 ft | 401 kts | 29° |
| 2026-04-28 16:35 | 62.77792 | 9.14208 | 36949 ft | 399 kts | 28° |
| 2026-04-28 16:35 | 62.80041 | 9.17760 | 36203 ft | 400 kts | 35° |
| 2026-04-28 16:36 | 62.81995 | 9.22056 | 35309 ft | 407 kts | 41° |
| 2026-04-28 16:36 | 62.83749 | 9.26959 | 34451 ft | 413 kts | 47° |
| 2026-04-28 16:36 | 62.85214 | 9.32421 | 33438 ft | 417 kts | 52° |
| 2026-04-28 16:36 | 62.86598 | 9.37991 | 32484 ft | 416 kts | 52° |
| 2026-04-28 16:37 | 62.87978 | 9.43565 | 31578 ft | 416 kts | 52° |
| 2026-04-28 16:37 | 62.89374 | 9.49189 | 30633 ft | 426 kts | 52° |
| 2026-04-28 16:37 | 62.90816 | 9.54966 | 29579 ft | 436 kts | 53° |
| 2026-04-28 16:38 | 62.93763 | 9.66825 | 27524 ft | 446 kts | 53° |
| 2026-04-28 16:38 | 62.95249 | 9.72832 | 26520 ft | 449 kts | 54° |
| 2026-04-28 16:38 | 62.96737 | 9.78864 | 25587 ft | 450 kts | 54° |
| 2026-04-28 16:38 | 62.98215 | 9.84884 | 24714 ft | 442 kts | 54° |
| 2026-04-28 16:39 | 62.99645 | 9.90741 | 24099 ft | 428 kts | 54° |
| 2026-04-28 16:39 | 63.01034 | 9.96443 | 23396 ft | 417 kts | 54° |
| 2026-04-28 16:39 | 63.02390 | 10.02002 | 22651 ft | 409 kts | 54° |
| 2026-04-28 16:39 | 63.03728 | 10.07486 | 21863 ft | 404 kts | 54° |
| 2026-04-28 16:40 | 63.05051 | 10.12908 | 21094 ft | 400 kts | 54° |
| 2026-04-28 16:40 | 63.06359 | 10.18282 | 20339 ft | 396 kts | 54° |
| 2026-04-28 16:40 | 63.07631 | 10.23523 | 19632 ft | 391 kts | 54° |
| 2026-04-28 16:40 | 63.08902 | 10.28777 | 18915 ft | 386 kts | 55° |
| 2026-04-28 16:41 | 63.10157 | 10.33980 | 18140 ft | 382 kts | 55° |
| 2026-04-28 16:41 | 63.11397 | 10.39131 | 17330 ft | 378 kts | 55° |
| 2026-04-28 16:41 | 63.12626 | 10.44247 | 16558 ft | 375 kts | 56° |
| 2026-04-28 16:41 | 63.13843 | 10.49325 | 15796 ft | 372 kts | 56° |
| 2026-04-28 16:42 | 63.15047 | 10.54363 | 15056 ft | 370 kts | 57° |
| 2026-04-28 16:42 | 63.16245 | 10.59388 | 14382 ft | 367 kts | 57° |
| 2026-04-28 16:42 | 63.17427 | 10.64358 | 13678 ft | 363 kts | 57° |
| 2026-04-28 16:42 | 63.18597 | 10.69291 | 12926 ft | 360 kts | 57° |
| 2026-04-28 16:43 | 63.19752 | 10.74172 | 12198 ft | 357 kts | 58° |
| 2026-04-28 16:43 | 63.20898 | 10.79028 | 11491 ft | 354 kts | 58° |
| 2026-04-28 16:43 | 63.22033 | 10.83843 | 10798 ft | 351 kts | 58° |
| 2026-04-28 16:43 | 63.23153 | 10.88607 | 10332 ft | 343 kts | 58° |
| 2026-04-28 16:44 | 63.24230 | 10.93211 | 10025 ft | 330 kts | 58° |
| 2026-04-28 16:44 | 63.25267 | 10.97650 | 9716 ft | 318 kts | 58° |
| 2026-04-28 16:44 | 63.26270 | 11.01946 | 9428 ft | 308 kts | 58° |
| 2026-04-28 16:44 | 63.27236 | 11.06092 | 9187 ft | 297 kts | 58° |
| 2026-04-28 16:45 | 63.28170 | 11.10106 | 8967 ft | 288 kts | 58° |
| 2026-04-28 16:45 | 63.29079 | 11.14014 | 8736 ft | 281 kts | 58° |
| 2026-04-28 16:45 | 63.29952 | 11.17774 | 8501 ft | 274 kts | 58° |
| 2026-04-28 16:45 | 63.30815 | 11.21499 | 8272 ft | 268 kts | 59° |
| 2026-04-28 16:46 | 63.31665 | 11.25168 | 7977 ft | 266 kts | 59° |
| 2026-04-28 16:46 | 63.32515 | 11.28844 | 7560 ft | 268 kts | 59° |
| 2026-04-28 16:46 | 63.33371 | 11.32555 | 7158 ft | 270 kts | 59° |
| 2026-04-28 16:46 | 63.34228 | 11.36275 | 6762 ft | 268 kts | 60° |
| 2026-04-28 16:47 | 63.35065 | 11.39924 | 6318 ft | 262 kts | 60° |
| 2026-04-28 16:47 | 63.35881 | 11.43489 | 5955 ft | 254 kts | 60° |
| 2026-04-28 16:47 | 63.36671 | 11.46950 | 5654 ft | 246 kts | 60° |
| 2026-04-28 16:47 | 63.37494 | 11.50201 | 5483 ft | 237 kts | 47° |
| 2026-04-28 16:48 | 63.38805 | 11.52199 | 5339 ft | 226 kts | 14° |
| 2026-04-28 16:48 | 63.40333 | 11.52502 | 5180 ft | 219 kts | 350° |
| 2026-04-28 16:48 | 63.41790 | 11.51648 | 5018 ft | 213 kts | 339° |
| 2026-04-28 16:48 | 63.43167 | 11.50570 | 4884 ft | 207 kts | 338° |
| 2026-04-28 16:49 | 63.44470 | 11.49321 | 4755 ft | 202 kts | 323° |
| 2026-04-28 16:49 | 63.45213 | 11.46762 | 4615 ft | 201 kts | 283° |
| 2026-04-28 16:49 | 63.45428 | 11.43659 | 4506 ft | 203 kts | 278° |
| 2026-04-28 16:49 | 63.45617 | 11.40532 | 4368 ft | 202 kts | 277° |
| 2026-04-28 16:50 | 63.45724 | 11.37489 | 4203 ft | 190 kts | 273° |
| 2026-04-28 16:50 | 63.45751 | 11.34636 | 4051 ft | 178 kts | 271° |
| 2026-04-28 16:50 | 63.45754 | 11.31905 | 3948 ft | 175 kts | 271° |
| 2026-04-28 16:50 | 63.45752 | 11.29192 | 3697 ft | 178 kts | 270° |
| 2026-04-28 16:51 | 63.45749 | 11.26438 | 3417 ft | 176 kts | 271° |
| 2026-04-28 16:51 | 63.45746 | 11.23720 | 3132 ft | 173 kts | 271° |
| 2026-04-28 16:51 | 63.45743 | 11.21034 | 2868 ft | 173 kts | 270° |
| 2026-04-28 16:51 | 63.45742 | 11.18331 | 2580 ft | 173 kts | 270° |
| 2026-04-28 16:52 | 63.45742 | 11.15653 | 2314 ft | 172 kts | 271° |
| 2026-04-28 16:52 | 63.45742 | 11.12986 | 2047 ft | 170 kts | 270° |
| 2026-04-28 16:52 | 63.45741 | 11.10460 | 1770 ft | 155 kts | 270° |
| 2026-04-28 16:52 | 63.45742 | 11.08111 | 1512 ft | 149 kts | 270° |
| 2026-04-28 16:53 | 63.45744 | 11.05766 | 1287 ft | 152 kts | 269° |
| 2026-04-28 16:53 | 63.45745 | 11.03541 | 1042 ft | 136 kts | 269° |
| 2026-04-28 16:53 | 63.45748 | 11.01503 | 824 ft | 126 kts | 268° |
| 2026-04-28 16:53 | 63.45749 | 10.99546 | 656 ft | 127 kts | 268° |
| 2026-04-28 16:54 | 63.45751 | 10.97550 | 432 ft | 128 kts | 266° |
| 2026-04-28 16:54 | 63.45752 | 10.95575 | 237 ft | 127 kts | 268° |
| 2026-04-28 16:54 | 63.45758 | 10.93590 | 65 ft | 125 kts | 268° |
| 2026-04-28 16:54 | 63.45756 | 10.92389 | 41 ft | 106 kts | 269° |
| 2026-04-28 16:55 | 63.45759 | 10.90874 | 33 ft | 35 kts | 269° |
| 2026-04-28 16:55 | 63.45717 | 10.90477 | 31 ft | 19 kts | 240° |
| 2026-04-28 16:55 | 63.45654 | 10.90377 | 32 ft | 10 kts | 189° |
| 2026-04-28 16:55 | 63.45600 | 10.90434 | 32 ft | 10 kts | 110° |
| 2026-04-28 16:56 | 63.45598 | 10.90582 | 33 ft | 10 kts | 90° |
| 2026-04-28 16:56 | 63.45597 | 10.90800 | 34 ft | 16 kts | 90° |
| 2026-04-28 16:56 | 63.45597 | 10.91051 | 34 ft | 16 kts | 90° |
| 2026-04-28 16:56 | 63.45596 | 10.91288 | 36 ft | 15 kts | 90° |
| 2026-04-28 16:57 | 63.45596 | 10.91496 | 38 ft | 13 kts | 90° |
| 2026-04-28 16:57 | 63.45595 | 10.91689 | 38 ft | 12 kts | 90° |
| 2026-04-28 16:57 | 63.45595 | 10.91866 | 38 ft | 11 kts | 90° |
| 2026-04-28 16:57 | 63.45587 | 10.91991 | 39 ft | 7 kts | 143° |
| 2026-04-28 16:58 | 63.45540 | 10.91998 | 37 ft | 6 kts | 180° |
| 2026-04-28 16:58 | 63.45510 | 10.91998 | 38 ft | 4 kts | 180° |
| 2026-04-28 16:58 | 63.45495 | 10.91998 | 38 ft | 0 kts | 180° |